Time;durP1;ratioP1;P1;durP2;ratioP2;P2;SDS_P1;SDS_P2;PMS_P1;PMS_P2;Temp;Humidity;BMP_temperature;BMP_pressure;BME280_temperature;BME280_humidity;BME280_pressure;Samples;Min_cycle;Max_cycle;Signal;HPM_P1;HPM_P2
2022/11/27 08:19:23;;;;;;;7.45;2.80;;;;;;;3.69;82.90;97380.53;2106211;27;20567;-63
2022/11/27 08:20:25;;;;;;;5.25;2.17;;;;;;;3.67;82.65;97387.44;2097163;28;20199;-64
2022/11/27 08:21:28;;;;;;;6.88;2.35;;;;;;;3.46;83.09;97385.81;2099496;28;20228;-63
2022/11/27 08:22:32;;;;;;;9.90;2.40;;;;;;;3.44;83.65;97382.38;2098531;28;20201;-65
2022/11/27 08:23:34;;;;;;;4.32;2.13;;;;;;;3.51;84.64;97388.38;2106139;28;20199;-64
2022/11/27 08:24:37;;;;;;;17.05;4.22;;;;;;;4.86;81.22;97390.84;2099796;28;20333;-64
2022/11/27 08:25:39;;;;;;;11.00;1.90;;;;;;;5.93;76.66;97398.19;2099552;28;20208;-64
2022/11/27 08:26:41;;;;;;;6.00;2.55;;;;;;;5.93;76.66;97398.19;2095006;28;20704;-64
2022/11/27 08:27:42;;;;;;;7.60;2.63;;;;;;;6.75;72.54;97386.56;2097082;28;20228;-64
2022/11/27 08:28:44;;;;;;;4.75;1.95;;;;;;;6.54;72.86;97401.63;2097378;28;20353;-64
2022/11/27 08:29:46;;;;;;;4.63;2.42;;;;;;;6.07;73.65;97400.63;2096236;28;20228;-64
2022/11/27 08:30:56;;;;;;;6.72;2.30;;;;;;;5.11;75.94;97377.66;2098789;28;20203;-65
2022/11/27 08:31:57;;;;;;;7.90;2.40;;;;;;;4.91;76.44;97389.06;2098245;28;20289;-64
2022/11/27 08:32:59;;;;;;;5.78;2.67;;;;;;;4.56;77.35;97392.84;2096919;28;20203;-64
2022/11/27 08:34:01;;;;;;;3.78;1.98;;;;;;;4.27;78.63;97388.78;2098790;28;20219;-64
2022/11/27 08:35:02;;;;;;;4.97;2.05;;;;;;;4.17;79.96;97397.47;2094523;28;20307;-64
2022/11/27 08:36:04;;;;;;;5.65;2.47;;;;;;;3.99;80.84;97398.47;2095354;28;20192;-65
2022/11/27 08:37:09;;;;;;;3.90;2.38;;;;;;;4.03;81.23;97390.66;2099032;28;20272;-64
2022/11/27 08:38:10;;;;;;;5.05;2.72;;;;;;;4.08;81.24;97382.88;2099126;28;20321;-65
2022/11/27 08:39:14;;;;;;;6.43;2.78;;;;;;;4.13;80.95;97378.53;2098862;28;20634;-64
2022/11/27 08:40:16;;;;;;;8.70;2.30;;;;;;;4.32;80.90;97378.41;2096893;28;20230;-63
2022/11/27 08:41:17;;;;;;;12.32;3.40;;;;;;;4.37;80.87;97369.72;2098222;28;20287;-63
2022/11/27 08:42:19;;;;;;;4.15;2.65;;;;;;;4.25;80.95;97352.59;2098002;28;20354;-63
2022/11/27 08:43:21;;;;;;;9.57;2.47;;;;;;;4.23;81.04;97364.66;2099051;28;20198;-63
2022/11/27 08:44:25;;;;;;;6.80;2.10;;;;;;;3.74;82.24;97360.69;2098724;28;20661;-66
2022/11/27 08:45:26;;;;;;;5.78;2.15;;;;;;;3.84;82.33;97355.47;2098788;28;20229;-63
2022/11/27 08:46:28;;;;;;;6.10;2.30;;;;;;;4.04;82.45;97357.94;2098837;28;20203;-63
2022/11/27 08:47:30;;;;;;;6.45;2.70;;;;;;;4.03;82.12;97351.88;2099325;28;20246;-64
2022/11/27 08:48:32;;;;;;;7.82;2.22;;;;;;;4.16;80.96;97341.47;2098364;28;20195;-64
2022/11/27 08:49:33;;;;;;;5.82;2.70;;;;;;;4.26;80.91;97353.44;2094398;28;20235;-64
2022/11/27 08:50:37;;;;;;;4.60;2.30;;;;;;;4.37;80.97;97345.59;2095080;28;20579;-65
2022/11/27 08:51:39;;;;;;;6.47;2.75;;;;;;;4.17;80.67;97350.94;2094818;28;20286;-63
2022/11/27 08:52:40;;;;;;;5.07;2.33;;;;;;;4.00;81.47;97354.50;2094893;28;20238;-63
2022/11/27 08:53:44;;;;;;;5.75;2.00;;;;;;;3.86;81.73;97353.72;2098451;28;20292;-63
2022/11/27 08:54:46;;;;;;;3.15;1.73;;;;;;;4.03;81.02;97343.28;2098052;28;20220;-63
2022/11/27 08:55:47;;;;;;;3.10;1.83;;;;;;;4.19;80.25;97331.06;2099498;28;20221;-63
2022/11/27 08:56:51;;;;;;;5.05;1.85;;;;;;;4.55;79.56;97354.91;2095084;28;20764;-63
2022/11/27 08:57:52;;;;;;;5.68;2.42;;;;;;;4.51;79.55;97364.44;2098568;28;20200;-63
2022/11/27 08:58:54;;;;;;;4.28;1.88;;;;;;;4.50;80.07;97351.50;2097053;28;20230;-63
2022/11/27 09:28:16;;;;;;;4.50;2.33;;;;;;;5.10;76.40;97337.94;2097963;28;20555;-64
2022/11/27 09:29:18;;;;;;;9.85;2.40;;;;;;;5.05;77.04;97339.72;2098336;28;20197;-65
2022/11/27 09:30:19;;;;;;;6.40;2.40;;;;;;;5.01;76.87;97322.50;2065863;28;20325;-65
2022/11/27 09:31:21;;;;;;;4.20;2.00;;;;;;;5.10;76.99;97316.38;2065508;28;20201;-65
2022/11/27 09:32:23;;;;;;;5.72;2.15;;;;;;;5.58;75.72;97336.50;2065305;28;20205;-65
2022/11/27 09:33:26;;;;;;;7.50;2.60;;;;;;;6.00;73.99;97329.84;2065227;28;20269;-65
2022/11/27 09:34:28;;;;;;;8.18;2.42;;;;;;;5.83;74.56;97331.81;2067698;28;20209;-65
2022/11/27 09:35:37;;;;;;;6.90;2.60;;;;;;;5.79;74.71;97333.59;2080808;28;20200;-66
2022/11/27 09:36:39;;;;;;;7.85;2.60;;;;;;;5.63;74.69;97335.53;2081191;28;20283;-65
2022/11/27 09:37:40;;;;;;;6.07;2.42;;;;;;;6.06;74.00;97331.50;2082249;28;20201;-66
2022/11/27 09:38:42;;;;;;;7.38;2.72;;;;;;;5.92;73.85;97329.06;2074751;28;20894;-65
2022/11/27 09:39:44;;;;;;;6.47;2.63;;;;;;;5.80;74.45;97342.22;2073909;28;20213;-65
2022/11/27 09:40:51;;;;;;;7.25;2.33;;;;;;;7.48;70.69;97347.06;2075823;28;20289;-66
2022/11/27 09:41:58;;;;;;;4.13;2.40;;;;;;;9.35;65.17;97338.19;2071240;28;20248;-66
2022/11/27 09:43:07;;;;;;;5.15;2.28;;;;;;;10.77;60.38;97336.34;2072265;28;20234;-66
2022/11/27 09:44:28;;;;;;;4.72;2.28;;;;;;;12.15;56.16;97339.16;2075559;28;20194;-65
2022/11/27 09:45:30;;;;;;;4.40;2.15;;;;;;;13.04;53.60;97321.50;2074162;28;20225;-66
2022/11/27 09:46:36;;;;;;;4.60;2.00;;;;;;;13.61;52.33;97307.59;2074216;28;20202;-66
2022/11/27 09:47:43;;;;;;;6.43;2.00;;;;;;;14.08;50.72;97329.91;2073841;28;20193;-66
2022/11/27 09:48:48;;;;;;;3.25;1.83;;;;;;;14.25;49.70;97329.97;2077699;28;20204;-66
2022/11/27 09:49:59;;;;;;;5.30;1.95;;;;;;;13.91;48.42;97322.84;2077383;28;20338;-66
2022/11/27 09:51:10;;;;;;;4.28;1.55;;;;;;;13.03;50.38;97299.66;2076955;28;20198;-66
2022/11/27 09:52:37;;;;;;;3.90;1.67;;;;;;;12.55;52.10;97314.78;2074722;28;20215;-66
2022/11/27 09:53:43;;;;;;;4.47;1.70;;;;;;;11.67;54.58;97313.06;2073524;28;20281;-66
2022/11/27 09:55:08;;;;;;;6.25;2.20;;;;;;;10.81;56.47;97297.94;2075150;28;20608;-66
2022/11/27 09:56:13;;;;;;;3.80;1.98;;;;;;;10.68;57.81;97310.53;2073687;28;20208;-66
2022/11/27 09:57:20;;;;;;;6.05;2.78;;;;;;;11.20;56.18;97290.41;2083318;28;20201;-66
2022/11/27 09:58:37;;;;;;;6.35;2.10;;;;;;;11.30;56.20;97308.34;2072872;28;20873;-66
2022/11/27 09:59:44;;;;;;;5.00;1.80;;;;;;;10.37;56.64;97303.75;2072520;28;20205;-66
2022/11/27 10:00:46;;;;;;;3.58;1.70;;;;;;;10.20;57.98;97305.13;2075441;28;20204;-66
2022/11/27 10:01:48;;;;;;;5.78;2.25;;;;;;;9.62;59.35;97311.28;2073770;28;20274;-66
2022/11/27 10:02:52;;;;;;;4.63;1.70;;;;;;;9.73;59.56;97308.34;2075229;28;20202;-66
2022/11/27 10:03:54;;;;;;;8.55;2.30;;;;;;;10.89;57.26;97308.94;2083168;28;20231;-64
2022/11/27 10:04:58;;;;;;;5.28;2.92;;;;;;;12.45;53.02;97291.69;2080742;28;20248;-66
2022/11/27 10:06:27;;;;;;;8.90;2.17;;;;;;;13.62;50.10;97298.81;2075357;28;20216;-65
2022/11/27 10:08:02;;;;;;;8.05;3.33;;;;;;;13.14;50.83;97299.19;2073608;28;20244;-65
2022/11/27 10:09:53;;;;;;;6.00;2.10;;;;;;;11.79;52.55;97296.03;2074577;28;20197;-66
2022/11/27 10:11:16;;;;;;;2.42;1.38;;;;;;;10.95;54.29;97298.28;2064627;28;20637;-66
2022/11/27 10:12:24;;;;;;;2.30;1.35;;;;;;;11.30;54.78;97298.75;2073970;28;20299;-66
2022/11/27 10:13:54;;;;;;;8.25;1.95;;;;;;;11.22;54.88;97288.59;2073477;28;20202;-65
2022/11/27 10:15:11;;;;;;;7.30;1.67;;;;;;;12.08;52.73;97294.03;2073525;28;20221;-65
2022/11/27 10:16:23;;;;;;;5.65;2.10;;;;;;;12.94;51.13;97268.59;2075307;28;20200;-67
2022/11/27 10:17:43;;;;;;;4.75;1.63;;;;;;;13.51;49.81;97283.56;2075900;28;20229;-65
2022/11/27 10:19:12;;;;;;;3.10;1.70;;;;;;;14.43;48.22;97275.66;2078004;28;20202;-65
2022/11/27 10:20:27;;;;;;;3.35;1.55;;;;;;;15.48;45.22;97287.81;2063642;28;20222;-65
2022/11/27 10:21:41;;;;;;;3.25;1.55;;;;;;;15.76;44.58;97283.66;2083876;28;20251;-65
2022/11/27 10:22:49;;;;;;;5.22;2.08;;;;;;;17.03;43.37;97285.16;2078863;28;20244;-65
2022/11/27 10:24:16;;;;;;;4.57;2.22;;;;;;;16.13;44.14;97293.00;2072631;28;20199;-65
2022/11/27 10:25:41;;;;;;;2.58;1.30;;;;;;;16.26;43.63;97277.31;2072552;28;20217;-65
2022/11/27 10:26:48;;;;;;;7.85;1.95;;;;;;;15.42;44.13;97285.50;2077540;28;20751;-65
2022/11/27 10:28:42;;;;;;;2.67;1.40;;;;;;;15.57;44.72;97282.03;2077578;28;20233;-66
2022/11/27 10:29:52;;;;;;;3.97;1.42;;;;;;;15.13;45.19;97280.84;2054374;28;20273;-66
2022/11/27 10:31:01;;;;;;;4.00;1.70;;;;;;;14.65;45.69;97278.09;2074683;28;20186;-65
2022/11/27 10:32:16;;;;;;;4.10;2.10;;;;;;;13.51;48.73;97271.31;2073771;28;20198;-66
2022/11/27 10:33:44;;;;;;;4.15;1.48;;;;;;;13.73;47.23;97240.59;2074897;28;20209;-65
2022/11/27 10:35:02;;;;;;;5.50;1.90;;;;;;;14.04;46.98;97274.06;2073258;28;20232;-66
2022/11/27 10:36:09;;;;;;;2.83;1.52;;;;;;;14.19;47.15;97256.72;2073931;28;20197;-70
2022/11/27 10:37:27;;;;;;;3.25;1.73;;;;;;;14.12;48.00;97273.69;2074907;28;20890;-70
2022/11/27 10:38:34;;;;;;;4.35;1.45;;;;;;;15.04;45.69;97270.81;2069540;28;20305;-70
2022/11/27 10:39:40;;;;;;;4.22;1.80;;;;;;;15.23;46.01;97267.22;2067683;28;20329;-71
2022/11/27 10:40:53;;;;;;;2.88;1.40;;;;;;;15.47;44.77;97272.94;2067477;28;20198;-70
2022/11/27 10:42:07;;;;;;;4.88;1.42;;;;;;;16.56;43.54;97267.75;2073777;28;20228;-70
2022/11/27 10:43:17;;;;;;;3.15;1.70;;;;;;;16.67;42.99;97277.63;2067967;28;20329;-70
2022/11/27 10:44:34;;;;;;;10.77;1.80;;;;;;;15.79;43.27;97244.81;2071871;28;20201;-70
2022/11/27 10:45:43;;;;;;;2.58;1.45;;;;;;;13.22;48.19;97277.88;2068401;28;20237;-70
2022/11/27 10:46:45;;;;;;;3.45;1.30;;;;;;;13.14;48.75;97264.22;2067284;28;20342;-70
2022/11/27 10:47:47;;;;;;;8.85;1.75;;;;;;;14.02;48.74;97274.16;2070666;28;20198;-70
2022/11/27 10:48:54;;;;;;;1.92;1.40;;;;;;;13.33;49.31;97259.88;2077388;28;20260;-70
2022/11/27 10:49:56;;;;;;;4.80;1.95;;;;;;;13.12;50.34;97271.34;2074944;28;20241;-66
2022/11/27 10:50:59;;;;;;;4.88;1.85;;;;;;;14.06;48.25;97258.25;2069713;28;20202;-67
2022/11/27 10:52:00;;;;;;;2.67;1.60;;;;;;;14.09;46.51;97261.56;2068940;28;20656;-66
2022/11/27 10:53:06;;;;;;;2.60;1.45;;;;;;;12.92;49.23;97261.72;2067092;28;20341;-66
2022/11/27 10:54:19;;;;;;;5.57;1.83;;;;;;;11.98;51.23;97259.53;2070006;28;20875;-66
2022/11/27 10:55:52;;;;;;;4.22;1.40;;;;;;;12.04;51.15;97255.81;2069183;28;20212;-66
2022/11/27 10:56:56;;;;;;;2.97;1.65;;;;;;;12.34;50.43;97255.47;2069743;28;20203;-66
2022/11/27 10:58:18;;;;;;;4.05;1.58;;;;;;;11.67;51.75;97249.41;2068915;28;20198;-66
2022/11/27 10:59:33;;;;;;;3.38;1.30;;;;;;;12.83;50.12;97237.63;2068713;28;20242;-70
2022/11/27 11:00:35;;;;;;;5.22;1.70;;;;;;;12.54;50.15;97223.19;2066828;28;20217;-71
2022/11/27 11:01:46;;;;;;;4.75;1.33;;;;;;;12.02;51.69;97221.84;2068455;28;20264;-71
2022/11/27 11:02:48;;;;;;;1.50;1.00;;;;;;;12.21;50.66;97223.69;2068009;28;20207;-70
2022/11/27 11:04:03;;;;;;;4.20;1.40;;;;;;;11.76;50.37;97218.50;2067734;28;20199;-71
2022/11/27 11:05:26;;;;;;;2.47;1.40;;;;;;;10.59;53.67;97209.88;2071266;28;20561;-71
2022/11/27 11:06:51;;;;;;;3.60;1.38;;;;;;;9.82;56.50;97215.06;2066508;28;20409;-70
2022/11/27 11:08:01;;;;;;;3.10;1.33;;;;;;;9.59;55.88;97209.69;2069059;28;20198;-70
2022/11/27 11:09:11;;;;;;;5.20;2.17;;;;;;;9.03;56.58;97189.69;2068551;28;20741;-70
2022/11/27 11:10:41;;;;;;;1.83;1.20;;;;;;;9.18;58.17;97197.91;2067781;28;20218;-70
2022/11/27 11:11:43;;;;;;;2.88;1.20;;;;;;;8.54;60.30;97194.53;2067904;28;20201;-71
2022/11/27 11:12:45;;;;;;;4.97;1.48;;;;;;;8.62;59.37;97203.00;2068255;28;20215;-70
2022/11/27 11:13:46;;;;;;;5.35;1.73;;;;;;;8.58;59.71;97174.47;2068183;28;20720;-70
2022/11/27 11:14:56;;;;;;;3.25;1.50;;;;;;;8.56;60.07;97189.28;2067323;28;20222;-70
2022/11/27 11:16:05;;;;;;;4.28;1.55;;;;;;;8.32;61.07;97189.88;2068147;28;20657;-70
2022/11/27 11:17:16;;;;;;;3.80;1.33;;;;;;;8.27;62.46;97188.31;2067556;28;20684;-70
2022/11/27 11:18:21;;;;;;;2.90;1.60;;;;;;;8.21;61.62;97185.88;2068414;28;20686;-70
2022/11/27 11:19:28;;;;;;;3.28;1.63;;;;;;;8.35;61.54;97188.94;2068154;28;20252;-69
2022/11/27 11:20:29;;;;;;;2.45;1.33;;;;;;;8.12;61.63;97185.22;2068278;28;20226;-70
2022/11/27 11:21:39;;;;;;;2.53;1.50;;;;;;;8.09;60.69;97176.66;2068261;28;20210;-70
2022/11/27 11:22:46;;;;;;;2.63;1.48;;;;;;;7.79;61.77;97169.56;2071530;28;20198;-70
2022/11/27 11:23:55;;;;;;;3.15;1.10;;;;;;;8.00;60.04;97149.13;2070813;28;20244;-69
2022/11/27 11:24:57;;;;;;;3.35;1.50;;;;;;;7.96;60.50;97155.28;2067277;28;20229;-70
2022/11/27 11:26:03;;;;;;;1.90;1.38;;;;;;;7.88;61.10;97154.66;2069155;28;20776;-69
2022/11/27 11:27:10;;;;;;;4.00;1.23;;;;;;;7.81;60.91;97138.38;2071220;28;20276;-70
2022/11/27 11:28:17;;;;;;;7.28;2.17;;;;;;;8.28;61.01;97157.03;2070731;28;20281;-70
2022/11/27 11:29:27;;;;;;;2.65;1.20;;;;;;;7.93;61.54;97151.03;2069076;28;20646;-70
2022/11/27 11:30:29;;;;;;;4.30;2.10;;;;;;;7.72;61.24;97148.97;2068827;28;20225;-69
2022/11/27 11:31:39;;;;;;;3.08;1.45;;;;;;;8.13;60.49;97150.50;2074883;28;20526;-70
2022/11/27 11:32:41;;;;;;;3.13;1.40;;;;;;;8.98;59.23;97153.34;2074045;28;20232;-70
2022/11/27 11:33:55;;;;;;;4.03;1.40;;;;;;;9.84;56.74;97154.13;2074922;28;20200;-67
2022/11/27 11:35:25;;;;;;;3.30;1.70;;;;;;;10.23;56.73;97116.25;2073127;28;20248;-67
2022/11/27 11:36:27;;;;;;;2.78;1.75;;;;;;;11.99;53.20;97142.63;2066569;28;20814;-66
2022/11/27 11:37:38;;;;;;;4.53;1.40;;;;;;;12.54;51.26;97148.09;2065478;28;20333;-67
2022/11/27 11:38:44;;;;;;;3.10;1.60;;;;;;;12.41;51.99;97141.66;2065900;28;20198;-67
2022/11/27 11:39:53;;;;;;;7.00;2.42;;;;;;;10.78;55.04;97142.97;2065085;28;20255;-67
2022/11/27 11:41:03;;;;;;;3.58;1.90;;;;;;;11.58;54.43;97140.78;2066041;28;20205;-67
2022/11/27 11:42:19;;;;;;;5.63;2.10;;;;;;;10.40;56.83;97132.19;2067859;28;20213;-67
2022/11/27 11:43:25;;;;;;;5.68;2.08;;;;;;;11.03;57.02;97141.19;2067880;28;20226;-67
2022/11/27 11:44:35;;;;;;;5.35;1.40;;;;;;;12.12;53.65;97135.94;2069431;28;20206;-67
2022/11/27 11:45:45;;;;;;;3.70;1.90;;;;;;;11.81;53.11;97147.69;2067433;28;20895;-68
2022/11/27 11:46:52;;;;;;;3.80;2.05;;;;;;;12.67;52.15;97142.25;2068864;28;20189;-67
2022/11/27 11:47:56;;;;;;;3.88;2.00;;;;;;;12.89;51.44;97153.47;2068094;28;20203;-66
2022/11/27 11:49:23;;;;;;;3.50;1.80;;;;;;;12.36;52.66;97148.88;2067609;28;20215;-67
2022/11/27 11:50:31;;;;;;;5.70;1.95;;;;;;;13.19;50.95;97146.88;2068098;28;20297;-67
2022/11/27 11:52:19;;;;;;;4.57;1.83;;;;;;;12.84;52.71;97146.75;2066782;28;20490;-67
2022/11/27 11:53:33;;;;;;;4.80;2.05;;;;;;;13.10;51.25;97116.69;2067714;28;20209;-67
2022/11/27 11:54:57;;;;;;;3.38;1.60;;;;;;;12.97;51.11;97142.63;2067316;28;20207;-67
2022/11/27 11:56:27;;;;;;;3.00;2.22;;;;;;;13.43;50.73;97130.94;2068087;28;20281;-71
2022/11/27 11:58:02;;;;;;;3.50;1.75;;;;;;;12.01;53.32;97135.53;2067330;28;20202;-71
2022/11/27 11:59:10;;;;;;;3.80;1.80;;;;;;;10.72;57.19;97135.38;2069444;28;20542;-71
2022/11/27 12:00:16;;;;;;;3.30;1.60;;;;;;;10.20;59.24;97127.66;2066906;28;20229;-71
2022/11/27 12:01:53;;;;;;;8.30;2.20;;;;;;;10.06;58.77;97129.91;2068838;28;20598;-71
2022/11/27 12:03:00;;;;;;;4.55;2.10;;;;;;;11.67;55.49;97129.06;2075063;28;20300;-71
2022/11/27 12:04:10;;;;;;;2.95;1.60;;;;;;;11.05;56.93;97121.09;2074921;28;20190;-71
2022/11/27 12:05:30;;;;;;;4.70;2.60;;;;;;;12.14;54.18;97125.38;2069799;28;20221;-71
2022/11/27 12:06:42;;;;;;;3.45;1.67;;;;;;;13.07;51.65;97122.94;2069679;28;20194;-70
2022/11/27 12:07:58;;;;;;;119.55;64.18;;;;;;;13.46;51.17;97129.00;2067413;28;20213;-67
2022/11/27 12:09:23;;;;;;;5.88;3.05;;;;;;;13.09;51.55;97127.25;2067704;28;20225;-66
2022/11/27 12:10:41;;;;;;;5.00;2.13;;;;;;;12.36;52.72;97125.31;2069035;28;20329;-66
2022/11/27 12:11:55;;;;;;;7.10;2.15;;;;;;;11.25;54.69;97121.16;2067227;28;20205;-71
2022/11/27 12:13:15;;;;;;;4.65;1.85;;;;;;;10.87;55.93;97115.66;2066809;28;20205;-70
2022/11/27 12:14:44;;;;;;;4.00;2.10;;;;;;;11.66;55.18;97102.06;2068786;28;20278;-70
2022/11/27 12:16:06;;;;;;;2.90;1.65;;;;;;;10.94;56.30;97104.06;2067405;28;20666;-70
2022/11/27 12:17:49;;;;;;;3.13;2.13;;;;;;;10.54;56.46;97062.94;2074686;28;20304;-70
2022/11/27 12:19:24;;;;;;;4.35;1.90;;;;;;;10.57;56.34;97100.22;2063657;28;20229;-71
2022/11/27 12:20:52;;;;;;;7.40;1.70;;;;;;;10.66;55.72;97100.81;2066137;28;20700;-70
2022/11/27 12:22:35;;;;;;;3.85;1.70;;;;;;;11.27;53.54;97100.16;2061150;28;20744;-70
2022/11/27 12:24:06;;;;;;;4.50;1.90;;;;;;;11.20;54.16;97096.97;2067789;28;20251;-66
2022/11/27 12:25:38;;;;;;;8.18;2.65;;;;;;;9.91;56.57;97102.59;2050249;28;20273;-67
2022/11/27 12:26:51;;;;;;;4.68;2.10;;;;;;;9.63;58.24;97101.75;2065999;28;20245;-65
2022/11/27 12:28:05;;;;;;;5.72;2.30;;;;;;;9.99;57.21;97102.31;2073834;28;20322;-66
2022/11/27 12:29:36;;;;;;;5.43;2.00;;;;;;;10.27;56.62;97092.59;2075587;28;20423;-70
2022/11/27 12:31:10;;;;;;;3.60;2.10;;;;;;;9.43;57.47;97091.16;2067908;28;20222;-71
2022/11/27 12:32:32;;;;;;;2.92;1.85;;;;;;;9.45;59.07;97089.34;2065085;28;20212;-71
2022/11/27 12:33:59;;;;;;;4.78;2.35;;;;;;;9.40;58.45;97086.06;2067072;28;20198;-71
2022/11/27 12:35:31;;;;;;;4.35;2.10;;;;;;;9.01;60.34;97083.81;2071421;28;20592;-71
2022/11/27 12:36:59;;;;;;;5.47;3.00;;;;;;;8.73;59.64;97093.31;2066877;28;20598;-71
2022/11/27 12:38:29;;;;;;;4.45;2.10;;;;;;;9.34;59.39;97079.25;2067301;28;20205;-71
2022/11/27 12:39:39;;;;;;;5.97;2.55;;;;;;;9.34;59.84;97088.84;2065359;28;20195;-71
2022/11/27 12:41:00;;;;;;;6.97;2.17;;;;;;;9.58;58.33;97064.56;2066841;28;20202;-71
2022/11/27 12:42:13;;;;;;;5.90;2.35;;;;;;;9.42;57.57;97085.09;2065604;28;20641;-70
2022/11/27 12:43:33;;;;;;;4.03;2.10;;;;;;;8.80;59.70;97084.44;2067422;28;20202;-70
2022/11/27 12:44:57;;;;;;;5.88;2.40;;;;;;;8.56;60.43;97075.63;2066905;28;20198;-71
2022/11/27 12:46:08;;;;;;;4.80;2.42;;;;;;;8.66;60.86;97076.19;2068422;28;20723;-70
2022/11/27 12:47:37;;;;;;;4.15;1.90;;;;;;;8.97;60.06;97068.28;2067415;28;21004;-70
2022/11/27 12:48:46;;;;;;;3.90;2.45;;;;;;;8.75;60.07;97075.06;2067583;28;20202;-72
2022/11/27 12:49:56;;;;;;;5.35;2.25;;;;;;;8.96;59.77;97071.81;2066986;28;20517;-72
2022/11/27 12:51:28;;;;;;;6.45;2.50;;;;;;;8.90;59.38;97064.19;2067721;28;20285;-72
2022/11/27 12:52:42;;;;;;;3.28;1.95;;;;;;;8.52;60.04;97058.38;2072465;28;20209;-72
2022/11/27 12:53:50;;;;;;;3.25;1.98;;;;;;;8.48;61.13;97065.44;2068162;28;20315;-72
2022/11/27 12:55:22;;;;;;;6.97;2.70;;;;;;;8.84;59.13;97064.38;2065039;28;20249;-72
2022/11/27 12:56:49;;;;;;;3.15;1.90;;;;;;;8.79;58.66;97055.84;2067376;28;20201;-73
2022/11/27 12:58:18;;;;;;;6.28;2.40;;;;;;;9.30;57.77;97059.44;2067600;28;20202;-68
2022/11/27 12:59:22;;;;;;;3.28;2.10;;;;;;;9.89;56.86;97053.09;2067756;28;20277;-68
2022/11/27 13:00:28;;;;;;;4.50;2.10;;;;;;;10.23;54.71;97046.66;2068880;28;20262;-68
2022/11/27 13:01:38;;;;;;;5.45;2.20;;;;;;;10.20;54.56;97053.75;2068031;28;20202;-68
2022/11/27 13:02:48;;;;;;;6.43;2.35;;;;;;;9.47;56.58;97053.63;2071011;28;20251;-68
2022/11/27 13:04:05;;;;;;;2.78;1.92;;;;;;;10.36;56.20;97060.13;2071071;28;20198;-68
2022/11/27 13:05:13;;;;;;;10.65;2.20;;;;;;;9.99;55.69;97044.91;2066205;28;20225;-68
2022/11/27 13:06:20;;;;;;;6.07;2.30;;;;;;;10.45;54.31;97036.28;2067972;28;20232;-68
2022/11/27 13:07:37;;;;;;;4.05;2.75;;;;;;;9.61;56.03;97054.03;2068031;28;20197;-68
2022/11/27 13:08:57;;;;;;;6.00;2.05;;;;;;;9.04;57.68;97042.91;2069765;28;20205;-68
2022/11/27 13:10:01;;;;;;;6.97;1.95;;;;;;;9.52;57.48;97059.53;2067214;28;20775;-68
2022/11/27 13:11:07;;;;;;;4.38;1.85;;;;;;;9.05;58.25;97043.75;2070527;28;20229;-68
2022/11/27 13:12:16;;;;;;;5.55;2.40;;;;;;;9.17;57.14;97045.94;2070784;28;20759;-67
2022/11/27 13:13:29;;;;;;;5.97;2.20;;;;;;;8.90;57.73;97043.34;2067293;28;20233;-68
2022/11/27 13:14:36;;;;;;;2.72;1.70;;;;;;;9.11;56.69;97048.75;2066075;28;20839;-68
2022/11/27 13:15:43;;;;;;;4.53;1.80;;;;;;;8.78;58.99;97051.53;2067903;28;20277;-68
2022/11/27 13:16:51;;;;;;;3.75;1.85;;;;;;;8.57;59.26;97048.69;2068116;28;20618;-68
2022/11/27 13:18:06;;;;;;;4.80;2.10;;;;;;;8.70;58.16;97024.84;2070111;28;20206;-68
2022/11/27 13:19:47;;;;;;;4.72;1.88;;;;;;;8.18;59.79;97048.94;2069946;28;20254;-68
2022/11/27 13:20:51;;;;;;;3.53;1.98;;;;;;;8.53;60.56;97041.84;2068631;28;20319;-67
2022/11/27 13:21:55;;;;;;;4.32;2.22;;;;;;;7.99;59.61;97044.22;2067046;28;20288;-68
2022/11/27 13:23:01;;;;;;;5.53;1.60;;;;;;;7.84;59.50;97042.06;2067351;28;20205;-68
2022/11/27 13:24:03;;;;;;;6.05;2.15;;;;;;;7.82;60.53;97042.13;2066954;28;20203;-68
2022/11/27 13:25:05;;;;;;;3.97;1.73;;;;;;;7.91;59.79;97042.75;2067694;28;20596;-72
2022/11/27 13:26:15;;;;;;;7.20;2.15;;;;;;;8.22;59.07;97039.28;2068646;28;20201;-73
2022/11/27 13:27:24;;;;;;;2.35;1.55;;;;;;;8.43;58.48;97028.25;2066821;28;20202;-71
2022/11/27 13:28:41;;;;;;;2.40;1.63;;;;;;;8.18;59.88;97035.91;2067865;28;20217;-67
2022/11/27 13:29:48;;;;;;;4.13;1.92;;;;;;;8.53;59.56;97036.63;2066824;28;20257;-67
2022/11/27 13:30:53;;;;;;;2.92;1.90;;;;;;;8.93;57.73;97040.63;2077640;28;20212;-66
2022/11/27 13:31:58;;;;;;;3.17;1.95;;;;;;;8.84;57.24;97027.91;2075543;28;20233;-67
2022/11/27 13:33:01;;;;;;;3.70;1.95;;;;;;;8.76;58.30;97033.34;2066830;28;20641;-67
2022/11/27 13:34:07;;;;;;;2.30;1.65;;;;;;;8.57;58.54;97032.19;2066107;28;20198;-67
2022/11/27 13:35:42;;;;;;;3.13;1.70;;;;;;;8.15;59.55;97036.88;2068154;28;20302;-67
2022/11/27 13:36:56;;;;;;;5.05;2.00;;;;;;;8.30;58.94;97032.97;2066905;28;20650;-67
2022/11/27 13:38:10;;;;;;;3.05;2.00;;;;;;;8.20;59.56;97030.66;2069191;28;20733;-67
2022/11/27 13:39:26;;;;;;;8.43;2.15;;;;;;;7.79;60.86;97021.38;2064868;28;20237;-68
2022/11/27 13:40:35;;;;;;;5.80;2.17;;;;;;;8.03;60.18;97019.00;2070544;28;20239;-72
2022/11/27 13:41:39;;;;;;;4.07;2.15;;;;;;;7.69;61.45;97030.34;2076744;28;20288;-72
2022/11/27 13:42:44;;;;;;;5.75;1.88;;;;;;;7.62;61.86;97021.00;2075504;28;20885;-72
2022/11/27 13:43:47;;;;;;;5.10;2.25;;;;;;;7.62;61.36;97014.06;2067284;28;20194;-72
2022/11/27 13:44:56;;;;;;;5.28;2.00;;;;;;;7.76;60.63;97016.28;2074174;28;20224;-72
2022/11/27 13:46:03;;;;;;;2.97;1.60;;;;;;;7.83;60.92;97028.22;2070678;28;20256;-72
2022/11/27 13:47:11;;;;;;;4.20;1.65;;;;;;;7.78;61.63;97026.63;2069792;28;20837;-72
2022/11/27 13:48:29;;;;;;;3.92;1.75;;;;;;;7.60;61.54;97028.81;2067600;28;20206;-72
2022/11/27 13:49:32;;;;;;;2.80;1.65;;;;;;;7.66;60.82;97022.63;2066176;28;20210;-72
2022/11/27 13:50:42;;;;;;;5.97;2.45;;;;;;;7.32;61.81;97023.50;2067597;28;20760;-72
2022/11/27 13:51:43;;;;;;;3.63;1.90;;;;;;;7.48;62.06;97006.63;2068737;28;20197;-72
2022/11/27 13:52:59;;;;;;;10.32;1.80;;;;;;;7.55;61.67;97024.66;2064882;28;20201;-72
2022/11/27 13:54:12;;;;;;;3.47;1.70;;;;;;;7.74;61.37;97020.66;2067432;28;20288;-67
2022/11/27 13:55:24;;;;;;;3.35;2.00;;;;;;;7.45;63.15;97014.53;2067240;28;20221;-68
2022/11/27 13:56:30;;;;;;;2.97;2.03;;;;;;;7.63;61.38;97010.56;2066807;28;20237;-67
2022/11/27 13:57:33;;;;;;;4.90;1.65;;;;;;;7.58;60.28;97008.97;2064982;28;20206;-68
2022/11/27 13:58:40;;;;;;;4.22;2.55;;;;;;;7.67;60.03;97012.19;2065390;28;20199;-67
2022/11/27 13:59:55;;;;;;;4.50;1.63;;;;;;;7.64;60.07;97001.00;2066718;28;20676;-67
2022/11/27 14:00:58;;;;;;;3.38;1.60;;;;;;;7.68;59.59;97013.03;2068119;28;20204;-68
2022/11/27 14:02:02;;;;;;;2.58;1.60;;;;;;;7.65;59.62;97002.72;2066680;28;20198;-67
2022/11/27 14:03:05;;;;;;;5.68;1.80;;;;;;;7.72;60.13;97004.28;2066033;28;20601;-67
2022/11/27 14:04:10;;;;;;;3.85;1.60;;;;;;;7.72;60.47;96999.06;2066888;28;20540;-67
2022/11/27 14:05:14;;;;;;;2.28;1.30;;;;;;;7.28;59.35;96991.56;2067468;28;20300;-67
2022/11/27 14:06:29;;;;;;;3.10;1.40;;;;;;;7.54;59.66;97003.00;2064591;28;20202;-68
2022/11/27 14:07:39;;;;;;;2.20;1.50;;;;;;;7.62;60.37;97003.66;2068229;28;20230;-68
2022/11/27 14:08:51;;;;;;;4.97;2.00;;;;;;;7.64;58.39;96998.41;2068170;28;20213;-67
2022/11/27 14:09:55;;;;;;;5.00;2.05;;;;;;;7.45;58.89;97008.44;2065786;28;20217;-68
2022/11/27 14:10:59;;;;;;;8.02;2.90;;;;;;;7.58;59.27;96985.56;2066753;28;20222;-68
2022/11/27 14:12:12;;;;;;;3.50;1.73;;;;;;;7.47;57.46;96996.28;2068039;28;20202;-67
2022/11/27 14:13:18;;;;;;;4.10;1.85;;;;;;;7.52;57.84;96997.00;2069636;28;20914;-67
2022/11/27 14:14:27;;;;;;;3.72;1.92;;;;;;;7.50;58.62;96984.06;2065947;28;20203;-68
2022/11/27 14:15:30;;;;;;;9.38;4.15;;;;;;;7.49;58.87;96984.06;2075510;28;20232;-68
2022/11/27 14:16:34;;;;;;;6.05;2.78;;;;;;;7.49;58.32;96976.28;2075011;28;20206;-67
2022/11/27 14:17:41;;;;;;;4.05;1.92;;;;;;;7.19;58.75;96955.44;2067609;28;20206;-68
2022/11/27 14:18:50;;;;;;;4.47;2.17;;;;;;;7.16;59.92;96973.69;2070865;28;20202;-68
2022/11/27 14:20:34;;;;;;;3.78;2.00;;;;;;;7.41;59.27;96976.50;2076817;28;20229;-68
2022/11/27 14:21:42;;;;;;;6.13;2.65;;;;;;;7.13;59.48;96950.41;2058512;28;20811;-68
2022/11/27 14:22:45;;;;;;;2.55;1.45;;;;;;;7.33;58.91;96960.28;2072532;28;20289;-68
2022/11/27 14:24:33;;;;;;;5.30;1.77;;;;;;;7.31;59.65;96977.63;2065681;28;20259;-68
2022/11/27 14:25:35;;;;;;;4.18;1.75;;;;;;;7.22;59.53;96947.56;2068546;28;20218;-68
2022/11/27 14:26:40;;;;;;;3.63;1.30;;;;;;;7.08;60.88;96978.25;2066062;28;20597;-67